createdAt,value
2022-11-19T00:01:22.760Z,92.80
2022-11-19T00:03:52.737Z,93.10
2022-11-19T00:06:25.886Z,93.00
2022-11-19T00:08:53.144Z,93.00
2022-11-19T00:11:41.213Z,93.10
2022-11-19T00:14:09.635Z,93.40
2022-11-19T00:16:36.383Z,93.80
2022-11-19T00:19:03.620Z,94.00
2022-11-19T00:21:31.380Z,93.50
2022-11-19T00:23:58.407Z,92.20
2022-11-19T00:26:25.585Z,92.40
2022-11-19T00:28:52.382Z,92.50
2022-11-19T00:31:19.685Z,92.70
2022-11-19T00:33:46.869Z,93.00
2022-11-19T00:36:15.201Z,93.40
2022-11-19T00:38:42.735Z,93.50
2022-11-19T00:41:09.862Z,93.80
2022-11-19T00:43:49.689Z,93.90
2022-11-19T00:46:16.518Z,94.00
2022-11-19T00:48:43.974Z,93.60
2022-11-19T00:51:11.471Z,94.00
2022-11-19T00:53:38.833Z,93.40
2022-11-19T00:56:09.003Z,93.60
2022-11-19T00:58:36.581Z,93.80
2022-11-19T01:01:04.091Z,94.40
2022-11-19T01:03:31.633Z,93.90
2022-11-19T01:05:58.684Z,93.90
2022-11-19T01:08:25.799Z,93.70
2022-11-19T01:10:52.553Z,93.80
2022-11-19T01:13:34.565Z,94.00
2022-11-19T01:16:11.113Z,93.50
2022-11-19T01:18:39.617Z,93.20
2022-11-19T01:21:07.665Z,92.90
2022-11-19T01:23:34.828Z,92.80
2022-11-19T01:26:02.204Z,92.60
2022-11-19T01:28:29.748Z,91.80
2022-11-19T01:30:56.679Z,92.00
2022-11-19T01:33:23.622Z,92.10
2022-11-19T01:36:01.206Z,92.60
2022-11-19T01:38:28.839Z,92.60
2022-11-19T01:40:56.451Z,92.60
2022-11-19T01:43:47.994Z,92.60
2022-11-19T01:46:17.471Z,92.50
2022-11-19T01:48:52.476Z,92.60
2022-11-19T01:51:28.576Z,92.10
2022-11-19T01:53:59.185Z,92.00
2022-11-19T01:56:27.804Z,92.10
2022-11-19T01:59:03.737Z,92.60
2022-11-19T02:01:32.783Z,92.70
2022-11-19T02:04:01.838Z,93.00
2022-11-19T02:06:29.780Z,92.60
2022-11-19T02:08:56.878Z,92.90
2022-11-19T02:11:40.986Z,93.10
2022-11-19T02:14:54.697Z,93.00
2022-11-19T02:17:45.975Z,93.00
2022-11-19T02:20:34.059Z,93.10
2022-11-19T02:23:25.340Z,93.00
2022-11-19T02:26:00.910Z,93.10
2022-11-19T02:29:02.376Z,93.40
2022-11-19T02:32:12.454Z,93.30
2022-11-19T02:34:53.597Z,92.20
2022-11-19T02:37:30.374Z,92.40
2022-11-19T02:40:04.905Z,92.60
2022-11-19T02:42:42.271Z,92.60
2022-11-19T02:45:19.119Z,92.70
2022-11-19T02:47:46.228Z,92.50
2022-11-19T02:50:20.786Z,92.50
2022-11-19T02:52:48.823Z,92.30
2022-11-19T02:55:20.718Z,91.70
2022-11-19T02:58:38.361Z,91.20
2022-11-19T03:01:26.028Z,91.70
2022-11-19T03:04:12.465Z,91.70
2022-11-19T03:06:40.212Z,91.50
2022-11-19T03:09:06.974Z,91.90
2022-11-19T03:11:33.728Z,92.30
2022-11-19T03:14:36.767Z,92.70
2022-11-19T03:17:29.161Z,92.90
2022-11-19T03:20:24.758Z,93.20
2022-11-19T03:22:53.970Z,93.50
2022-11-19T03:25:26.765Z,93.70
2022-11-19T03:27:59.251Z,93.70
2022-11-19T03:30:29.074Z,93.70
2022-11-19T03:33:00.494Z,93.50
2022-11-19T03:35:32.909Z,93.70
2022-11-19T03:38:04.137Z,94.00
2022-11-19T03:40:33.584Z,93.90
2022-11-19T03:43:05.062Z,94.10
2022-11-19T03:45:39.089Z,94.20
2022-11-19T03:48:07.014Z,94.00
2022-11-19T03:50:54.453Z,94.10
2022-11-19T03:53:22.244Z,93.80
2022-11-19T03:55:57.361Z,93.60
2022-11-19T03:58:25.621Z,93.70
2022-11-19T04:00:53.316Z,93.70
2022-11-19T04:03:20.124Z,93.90
2022-11-19T04:05:47.012Z,94.10
2022-11-19T04:08:13.821Z,94.40
2022-11-19T04:10:40.570Z,94.20
2022-11-19T04:13:07.278Z,94.10
2022-11-19T04:15:33.964Z,94.20
2022-11-19T04:18:00.702Z,94.20
2022-11-19T04:20:27.448Z,94.20
2022-11-19T04:22:54.152Z,94.40
2022-11-19T04:25:20.881Z,94.50
2022-11-19T04:27:47.901Z,94.40
2022-11-19T04:30:15.836Z,94.60
2022-11-19T04:32:43.200Z,94.70
2022-11-19T04:35:10.553Z,94.30
2022-11-19T04:37:37.240Z,94.40
2022-11-19T04:40:04.413Z,94.30
2022-11-19T04:42:31.244Z,94.40
2022-11-19T04:44:58.491Z,94.40
2022-11-19T04:47:25.234Z,94.70
2022-11-19T04:49:51.950Z,94.50
2022-11-19T04:52:18.651Z,94.40
2022-11-19T04:54:45.409Z,94.30
2022-11-19T04:57:12.096Z,94.40
2022-11-19T04:59:38.807Z,94.20
2022-11-19T05:02:05.579Z,94.20
2022-11-19T05:04:32.295Z,94.00
2022-11-19T05:06:59.029Z,93.80
2022-11-19T05:09:25.800Z,93.60
2022-11-19T05:11:52.513Z,93.70
2022-11-19T05:14:19.222Z,93.80
2022-11-19T05:16:45.936Z,93.90
2022-11-19T05:19:12.645Z,94.30
2022-11-19T05:21:39.366Z,93.70
2022-11-19T05:24:06.360Z,93.70
2022-11-19T05:26:33.161Z,93.70
2022-11-19T05:28:59.854Z,92.90
2022-11-19T05:31:26.611Z,92.70
2022-11-19T05:33:53.317Z,92.50
2022-11-19T05:36:20.035Z,92.60
2022-11-19T05:38:46.754Z,92.10
2022-11-19T05:41:13.500Z,92.50
2022-11-19T05:43:40.203Z,92.40
2022-11-19T05:46:06.936Z,92.30
2022-11-19T05:48:33.615Z,92.20
2022-11-19T05:51:00.386Z,92.30
2022-11-19T05:53:27.552Z,92.50
2022-11-19T05:55:54.269Z,92.30
2022-11-19T05:58:21.024Z,92.10
2022-11-19T06:00:48.124Z,92.30
2022-11-19T06:03:14.888Z,92.10
2022-11-19T06:05:41.930Z,92.10
2022-11-19T06:08:08.678Z,92.30
2022-11-19T06:10:35.421Z,92.20
2022-11-19T06:13:02.180Z,91.90
2022-11-19T06:15:29.121Z,92.10
2022-11-19T06:17:56.888Z,92.20
2022-11-19T06:20:23.565Z,92.50
2022-11-19T06:22:51.644Z,92.80
2022-11-19T06:25:18.566Z,92.70
2022-11-19T06:27:45.257Z,92.30
2022-11-19T06:30:12.977Z,92.40
2022-11-19T06:32:39.657Z,92.50
2022-11-19T06:35:06.896Z,92.50
2022-11-19T06:37:33.779Z,92.60
2022-11-19T06:40:00.545Z,92.80
2022-11-19T06:42:36.381Z,92.50
2022-11-19T06:45:12.387Z,92.80
2022-11-19T06:47:40.248Z,92.70
2022-11-19T06:50:09.341Z,92.70
2022-11-19T06:52:36.329Z,92.40
2022-11-19T06:55:03.154Z,92.10
2022-11-19T06:57:30.138Z,92.00
2022-11-19T06:59:56.939Z,92.30
2022-11-19T07:02:23.678Z,92.10
2022-11-19T07:04:50.368Z,91.90
2022-11-19T07:07:17.357Z,92.10
2022-11-19T07:09:44.131Z,92.30
2022-11-19T07:12:10.872Z,91.60
2022-11-19T07:14:37.718Z,91.50
2022-11-19T07:17:05.251Z,91.40
2022-11-19T07:19:32.148Z,91.80
2022-11-19T07:21:58.909Z,91.70
2022-11-19T07:24:25.606Z,92.10
2022-11-19T07:26:52.394Z,91.90
2022-11-19T07:29:19.486Z,91.60
2022-11-19T07:31:50.291Z,91.80
2022-11-19T07:34:17.925Z,91.60
2022-11-19T07:36:45.456Z,91.60
2022-11-19T07:39:12.598Z,91.80
2022-11-19T07:41:57.988Z,91.60
2022-11-19T07:44:24.710Z,91.90
2022-11-19T07:46:51.464Z,91.60
2022-11-19T07:49:19.164Z,91.00
2022-11-19T07:51:46.106Z,91.30
2022-11-19T07:54:12.958Z,91.60
2022-11-19T07:56:40.304Z,91.10
2022-11-19T07:59:07.200Z,90.90
2022-11-19T08:01:34.014Z,91.30
2022-11-19T08:04:00.782Z,90.40
2022-11-19T08:06:28.409Z,91.10
2022-11-19T08:08:56.294Z,90.00
2022-11-19T08:11:24.179Z,90.50
2022-11-19T08:13:51.782Z,90.30
2022-11-19T08:16:37.852Z,90.10
2022-11-19T08:19:09.981Z,89.80
2022-11-19T08:21:40.280Z,90.00
2022-11-19T08:24:07.813Z,90.50
2022-11-19T08:26:34.720Z,90.40
2022-11-19T08:29:01.602Z,90.30
2022-11-19T08:31:29.010Z,90.80
2022-11-19T08:33:55.849Z,90.90
2022-11-19T08:36:22.901Z,91.10
2022-11-19T08:38:49.646Z,91.00
2022-11-19T08:41:35.120Z,90.80
2022-11-19T08:44:02.771Z,91.60
2022-11-19T08:46:29.717Z,91.30
2022-11-19T08:48:56.451Z,91.50
2022-11-19T08:51:23.244Z,91.40
2022-11-19T08:53:54.535Z,91.40
2022-11-19T08:56:21.968Z,91.80
2022-11-19T08:58:48.988Z,91.60
2022-11-19T09:01:17.582Z,91.30
2022-11-19T09:03:44.770Z,91.00
2022-11-19T09:06:11.864Z,91.30
2022-11-19T09:08:39.144Z,91.20
2022-11-19T09:11:11.680Z,91.00
2022-11-19T09:13:39.104Z,91.50
2022-11-19T09:16:06.689Z,91.20
2022-11-19T09:18:33.997Z,91.10
2022-11-19T09:21:00.836Z,90.70
2022-11-19T09:23:27.742Z,90.70
2022-11-19T09:26:16.167Z,91.60
2022-11-19T09:28:43.355Z,91.20
2022-11-19T09:31:13.425Z,91.10
2022-11-19T09:33:42.227Z,91.20
2022-11-19T09:36:10.619Z,91.00
2022-11-19T09:38:37.530Z,91.10
2022-11-19T09:41:25.413Z,90.60
2022-11-19T09:44:15.131Z,91.00
2022-11-19T09:47:22.837Z,91.30
2022-11-19T09:50:10.472Z,91.10
2022-11-19T09:52:44.191Z,91.40
2022-11-19T09:55:22.583Z,92.00
2022-11-19T09:57:54.721Z,91.90
2022-11-19T10:00:23.838Z,92.20
2022-11-19T10:02:50.942Z,92.40
2022-11-19T10:05:28.763Z,92.40
2022-11-19T10:08:25.630Z,92.40
2022-11-19T10:11:29.791Z,92.60
2022-11-19T10:14:05.682Z,92.60
2022-11-19T10:16:41.392Z,92.60
2022-11-19T10:19:26.372Z,92.80
2022-11-19T10:22:17.236Z,92.70
2022-11-19T10:24:54.923Z,92.50
2022-11-19T10:27:30.863Z,92.50
2022-11-19T10:30:12.329Z,92.60
2022-11-19T10:32:40.753Z,92.70
2022-11-19T10:35:21.185Z,92.60
2022-11-19T10:38:01.307Z,92.50
2022-11-19T10:40:42.881Z,92.90
2022-11-19T10:43:30.304Z,92.70
2022-11-19T10:45:59.756Z,92.80
2022-11-19T10:48:40.355Z,92.60
2022-11-19T10:51:22.781Z,92.80
2022-11-19T10:53:52.663Z,92.40
2022-11-19T10:56:22.867Z,92.50
2022-11-19T10:58:57.880Z,92.80
2022-11-19T11:01:39.552Z,92.80
2022-11-19T11:04:26.328Z,92.60
2022-11-19T11:06:56.257Z,92.90
2022-11-19T11:09:47.075Z,92.70
2022-11-19T11:12:58.948Z,92.90
2022-11-19T11:15:27.197Z,93.10
2022-11-19T11:18:03.226Z,92.90
2022-11-19T11:20:30.925Z,93.00
2022-11-19T11:23:15.028Z,93.20
2022-11-19T11:25:56.600Z,93.40
2022-11-19T11:28:24.145Z,93.50
2022-11-19T11:30:56.646Z,93.60
2022-11-19T11:33:34.702Z,93.40
2022-11-19T11:36:24.345Z,93.00
2022-11-19T11:38:53.454Z,93.00
2022-11-19T11:44:19.775Z,92.70
2022-11-19T11:47:10.312Z,93.00
2022-11-19T11:49:41.258Z,93.00
2022-11-19T11:52:19.189Z,92.70
2022-11-19T11:55:00.064Z,92.80
2022-11-19T11:57:28.724Z,92.60
2022-11-19T11:59:56.150Z,92.60
2022-11-19T12:02:32.520Z,92.50
2022-11-19T12:05:17.505Z,92.60
2022-11-19T12:08:04.787Z,92.50
2022-11-19T12:10:51.052Z,92.40
2022-11-19T12:13:36.004Z,92.20
2022-11-19T12:16:13.330Z,92.00
2022-11-19T12:19:25.036Z,92.00
2022-11-19T12:21:56.920Z,92.50
2022-11-19T12:24:44.825Z,92.80
2022-11-19T12:27:14.284Z,92.40
2022-11-19T12:29:55.998Z,92.20
2022-11-19T12:33:00.175Z,91.50
2022-11-19T12:35:26.930Z,91.60
2022-11-19T12:38:24.489Z,92.00
2022-11-19T12:41:07.274Z,91.60
2022-11-19T12:44:02.011Z,91.40
2022-11-19T12:46:41.579Z,91.60
2022-11-19T12:49:42.551Z,91.30
2022-11-19T12:52:18.330Z,91.80
2022-11-19T12:55:04.317Z,91.30
2022-11-19T12:57:59.266Z,90.90
2022-11-19T13:00:28.880Z,90.90
2022-11-19T13:03:15.126Z,90.40
2022-11-19T13:05:50.134Z,91.30
2022-11-19T13:08:29.999Z,91.00
2022-11-19T13:11:17.282Z,91.10
2022-11-19T13:13:59.995Z,91.40
2022-11-19T13:16:30.634Z,91.20
2022-11-19T13:19:12.166Z,91.20
2022-11-19T13:21:57.365Z,91.30
2022-11-19T13:24:48.022Z,91.20
2022-11-19T13:27:22.942Z,91.00
2022-11-19T13:30:04.371Z,90.30
2022-11-19T13:33:26.450Z,90.30
2022-11-19T13:36:10.736Z,90.30
2022-11-19T13:38:49.460Z,90.00
2022-11-19T13:41:31.649Z,89.90
2022-11-19T13:44:17.881Z,89.90
2022-11-19T13:46:57.645Z,88.80
2022-11-19T13:49:32.314Z,89.20
2022-11-19T13:52:08.845Z,90.20
2022-11-19T13:54:40.952Z,90.10
2022-11-19T13:57:22.414Z,90.70
2022-11-19T13:59:50.332Z,90.40
2022-11-19T14:02:37.632Z,90.40
2022-11-19T14:05:16.321Z,91.00
2022-11-19T14:07:43.059Z,90.40
2022-11-19T14:10:38.044Z,90.70
2022-11-19T14:13:37.798Z,91.30
2022-11-19T14:16:41.515Z,91.10
2022-11-19T14:19:33.725Z,91.50
2022-11-19T14:22:20.384Z,91.40
2022-11-19T14:25:05.912Z,91.40
2022-11-19T14:27:34.023Z,91.50
2022-11-19T14:30:18.706Z,90.70
2022-11-19T14:32:50.191Z,91.10
2022-11-19T14:35:25.994Z,91.30
2022-11-19T14:38:24.312Z,91.70
2022-11-19T14:41:05.970Z,91.90
2022-11-19T14:44:08.111Z,91.80
2022-11-19T14:46:36.385Z,91.50
2022-11-19T14:49:06.610Z,91.40
2022-11-19T14:51:39.008Z,91.40
2022-11-19T14:54:15.093Z,91.70
2022-11-19T14:56:46.692Z,91.50
2022-11-19T14:59:16.445Z,91.40
2022-11-19T15:01:55.486Z,91.90
2022-11-19T15:04:25.575Z,91.80
2022-11-19T15:06:52.830Z,92.10
2022-11-19T15:09:51.454Z,92.30
2022-11-19T15:12:20.321Z,92.10
2022-11-19T15:15:05.640Z,91.90
2022-11-19T15:17:35.279Z,91.90
2022-11-19T15:20:23.686Z,92.20
2022-11-19T15:23:03.262Z,92.10
2022-11-19T15:26:14.574Z,92.10
2022-11-19T15:29:14.518Z,92.00
2022-11-19T15:32:05.494Z,91.90
2022-11-19T15:34:56.325Z,92.10
2022-11-19T15:37:49.395Z,92.10
2022-11-19T15:40:28.112Z,92.00
2022-11-19T15:43:15.326Z,92.30
2022-11-19T15:45:53.678Z,92.10
2022-11-19T15:48:33.646Z,92.30
2022-11-19T15:51:01.268Z,92.50
2022-11-19T15:53:28.266Z,92.60
2022-11-19T15:56:07.594Z,92.40
2022-11-19T15:58:44.903Z,92.80
2022-11-19T16:01:17.231Z,92.90
2022-11-19T16:03:45.500Z,93.00
2022-11-19T16:06:23.596Z,92.80
2022-11-19T16:08:55.444Z,93.10
2022-11-19T16:11:43.316Z,93.00
2022-11-19T16:14:46.180Z,92.80
2022-11-19T16:17:43.454Z,92.70
2022-11-19T16:20:11.017Z,92.80
2022-11-19T16:22:57.115Z,92.60
2022-11-19T16:25:35.936Z,93.00
2022-11-19T16:28:12.546Z,92.70
2022-11-19T16:30:51.470Z,93.10
2022-11-19T16:33:23.338Z,93.10
2022-11-19T16:35:53.550Z,93.00
2022-11-19T16:38:27.948Z,93.00
2022-11-19T16:41:15.052Z,93.00
2022-11-19T16:43:48.598Z,92.70
2022-11-19T16:46:19.415Z,92.90
2022-11-19T16:48:50.425Z,93.00
2022-11-19T16:51:31.960Z,92.90
2022-11-19T16:53:59.367Z,92.50
2022-11-19T16:56:31.900Z,92.70
2022-11-19T16:59:02.789Z,92.70
2022-11-19T17:01:30.183Z,92.80
2022-11-19T17:04:04.025Z,92.90
2022-11-19T17:06:34.721Z,93.10
2022-11-19T17:09:01.982Z,92.90
2022-11-19T17:12:06.326Z,92.60
2022-11-19T17:14:35.770Z,92.80
2022-11-19T17:17:03.513Z,92.80
2022-11-19T17:19:35.517Z,93.00
2022-11-19T17:22:23.383Z,92.80
2022-11-19T17:24:51.009Z,92.90
2022-11-19T17:27:28.952Z,93.20
2022-11-19T17:30:08.860Z,93.30
2022-11-19T17:32:45.539Z,92.90
2022-11-19T17:35:37.923Z,92.90
2022-11-19T17:38:12.153Z,92.70
2022-11-19T17:40:46.845Z,92.90
2022-11-19T17:43:34.475Z,92.50
2022-11-19T17:46:01.264Z,93.00
2022-11-19T17:48:29.177Z,92.30
2022-11-19T17:50:56.222Z,92.30
2022-11-19T17:53:23.526Z,92.30
2022-11-19T17:55:53.186Z,92.60
2022-11-19T17:58:19.958Z,92.40
2022-11-19T18:00:47.538Z,92.50
2022-11-19T18:03:15.316Z,92.50
2022-11-19T18:05:50.856Z,92.50
2022-11-19T18:08:17.721Z,92.50
2022-11-19T18:10:47.096Z,92.80
2022-11-19T18:13:19.460Z,93.00
2022-11-19T18:15:46.480Z,93.20
2022-11-19T18:18:13.182Z,92.80
2022-11-19T18:20:39.946Z,93.10
2022-11-19T18:23:06.700Z,92.80
2022-11-19T18:25:33.438Z,92.80
2022-11-19T18:28:00.262Z,92.20
2022-11-19T18:30:27.039Z,92.20
2022-11-19T18:32:53.753Z,92.10
2022-11-19T18:35:22.261Z,92.10
2022-11-19T18:37:49.344Z,92.30
2022-11-19T18:40:16.748Z,92.80
2022-11-19T18:43:03.635Z,92.80
2022-11-19T18:45:30.726Z,92.90
2022-11-19T18:47:57.518Z,92.70
2022-11-19T18:50:29.348Z,92.50
2022-11-19T18:52:56.868Z,91.90
2022-11-19T18:55:23.615Z,91.40
2022-11-19T18:57:50.317Z,92.10
2022-11-19T19:00:17.508Z,92.30
2022-11-19T19:02:44.216Z,92.30
2022-11-19T19:05:11.456Z,91.90
2022-11-19T19:07:38.253Z,92.30
2022-11-19T19:10:05.324Z,92.00
2022-11-19T19:12:32.119Z,91.80
2022-11-19T19:14:58.923Z,91.30
2022-11-19T19:17:26.227Z,91.40
2022-11-19T19:19:52.982Z,91.60
2022-11-19T19:22:20.555Z,92.00
2022-11-19T19:24:47.326Z,91.80
2022-11-19T19:27:15.042Z,92.10
2022-11-19T19:29:42.161Z,92.00
2022-11-19T19:32:09.044Z,92.20
2022-11-19T19:34:36.368Z,92.30
2022-11-19T19:37:04.284Z,92.40
2022-11-19T19:39:31.117Z,92.50
2022-11-19T19:41:57.921Z,92.50
2022-11-19T19:44:24.749Z,92.40
2022-11-19T19:46:51.521Z,92.50
2022-11-19T19:49:18.318Z,92.90
2022-11-19T19:51:45.141Z,93.20
2022-11-19T19:54:11.829Z,93.30
2022-11-19T19:56:39.887Z,93.00
2022-11-19T19:59:06.657Z,92.40
2022-11-19T20:01:35.107Z,92.90
2022-11-19T20:04:07.403Z,93.00
2022-11-19T20:06:36.621Z,92.40
2022-11-19T20:09:08.931Z,92.40
2022-11-19T20:11:48.472Z,92.00
2022-11-19T20:14:15.182Z,92.10
2022-11-19T20:16:42.057Z,92.20
2022-11-19T20:19:13.160Z,92.40
2022-11-19T20:21:40.443Z,92.20
2022-11-19T20:24:12.192Z,92.60
2022-11-19T20:26:40.742Z,92.80
2022-11-19T20:29:08.806Z,92.80
2022-11-19T20:31:35.771Z,93.10
2022-11-19T20:34:05.442Z,93.20
2022-11-19T20:36:35.190Z,93.00
2022-11-19T20:39:02.324Z,93.20
2022-11-19T20:41:48.417Z,93.20
2022-11-19T20:44:20.290Z,93.30
2022-11-19T20:46:55.751Z,93.20
2022-11-19T20:49:34.706Z,93.20
2022-11-19T20:52:03.445Z,93.10
2022-11-19T20:54:30.285Z,93.40
2022-11-19T20:56:57.702Z,93.40
2022-11-19T20:59:26.246Z,93.40
2022-11-19T21:01:54.616Z,93.10
2022-11-19T21:04:23.040Z,92.80
2022-11-19T21:06:50.896Z,92.60
2022-11-19T21:09:19.894Z,92.60
2022-11-19T21:11:47.537Z,92.80
2022-11-19T21:14:14.486Z,92.70
2022-11-19T21:16:41.762Z,93.20
2022-11-19T21:19:10.314Z,93.00
2022-11-19T21:21:37.784Z,93.30
2022-11-19T21:24:05.339Z,93.30
2022-11-19T21:26:32.030Z,93.50
2022-11-19T21:28:59.952Z,93.40
2022-11-19T21:31:38.465Z,93.20
2022-11-19T21:34:06.873Z,93.00
2022-11-19T21:36:33.752Z,93.40
2022-11-19T21:39:00.525Z,93.20
2022-11-19T21:41:27.346Z,93.10
2022-11-19T21:43:54.177Z,93.10
2022-11-19T21:46:20.919Z,93.40
2022-11-19T21:48:47.678Z,93.10
2022-11-19T21:51:14.379Z,93.20
2022-11-19T21:53:41.081Z,93.30
2022-11-19T21:56:08.056Z,93.40
2022-11-19T21:58:34.785Z,93.40
2022-11-19T22:01:04.375Z,93.60
2022-11-19T22:03:33.162Z,93.60
2022-11-19T22:06:06.664Z,93.40
2022-11-19T22:08:35.398Z,93.60
2022-11-19T22:11:20.941Z,93.70
2022-11-19T22:13:48.791Z,93.70
2022-11-19T22:16:15.515Z,93.80
2022-11-19T22:18:42.254Z,93.90
2022-11-19T22:21:09.265Z,93.90
2022-11-19T22:23:36.224Z,94.00
2022-11-19T22:26:07.442Z,94.00
2022-11-19T22:28:34.929Z,94.20
2022-11-19T22:31:01.807Z,94.20
2022-11-19T22:33:33.791Z,94.40
2022-11-19T22:36:08.167Z,94.30
2022-11-19T22:38:37.185Z,94.40
2022-11-19T22:41:12.501Z,94.40
2022-11-19T22:43:40.574Z,94.60
2022-11-19T22:46:09.274Z,94.80
2022-11-19T22:48:37.282Z,94.80
2022-11-19T22:51:09.581Z,94.90
2022-11-19T22:53:37.216Z,94.80
2022-11-19T22:56:06.185Z,94.90
2022-11-19T22:58:33.477Z,94.70
2022-11-19T23:01:00.443Z,94.70
2022-11-19T23:03:27.228Z,94.70
2022-11-19T23:05:55.909Z,94.70
2022-11-19T23:08:23.162Z,94.60
2022-11-19T23:11:06.156Z,94.60
2022-11-19T23:13:35.535Z,94.90
2022-11-19T23:16:07.397Z,94.70
2022-11-19T23:18:37.521Z,94.50
2022-11-19T23:21:06.927Z,94.40
2022-11-19T23:23:34.176Z,94.70
2022-11-19T23:26:02.782Z,94.60
2022-11-19T23:28:31.705Z,94.60
2022-11-19T23:31:03.667Z,94.50
2022-11-19T23:33:30.608Z,94.70
2022-11-19T23:36:05.073Z,94.70
2022-11-19T23:38:33.984Z,94.70
2022-11-19T23:41:01.561Z,94.50
2022-11-19T23:43:29.157Z,94.40
2022-11-19T23:46:03.110Z,94.50
2022-11-19T23:48:31.102Z,94.20
2022-11-19T23:51:07.240Z,94.50
2022-11-19T23:53:34.273Z,94.80
2022-11-19T23:56:02.304Z,94.90
2022-11-19T23:58:29.301Z,94.70
